Bookmark and Share
Track history (hours):
 

MSC Fuji

Last reported at 2014-Apr-12 06:26 UTC. Time now 2014-Apr-18 13:18 UTC.
Position N 39°42' E 025°45'.

Length 192 m; draft 7.2 m.

Type: Cargo ship. MMSI: 636092001.

NotesDate/timePositionNaut miles runAvg speedWind from/ knotsBaromVisibWave heightAir tempDewpointWater temp
2014-Apr-12 06:26N 39°42' E 025°45'10017.0
2014-Apr-12 00:32N 38°13' E 024°48'1816.7
2014-Apr-11 23:28N 37°57' E 024°37'1516.5
2014-Apr-11 22:33N 37°46' E 024°24'1616.5
2014-Apr-11 21:33N 37°35' E 024°08'1817.5
2014-Apr-11 20:32N 37°38' E 023°46'1717.1
2014-Apr-11 19:33N 37°53' E 023°36'5 4.3
2014-Apr-11 18:29N 37°57' E 023°36'0 0.0
2014-Apr-11 17:32N 37°57' E 023°36'0 0.0
2014-Apr-11 16:31N 37°57' E 023°36'0 0.0
2014-Apr-11 15:31N 37°57' E 023°36'0 0.0
2014-Apr-11 14:31N 37°57' E 023°36'0 0.0
2014-Apr-11 13:33N 37°57' E 023°36'0 0.0
2014-Apr-11 12:33N 37°57' E 023°36'0 0.0
2014-Apr-11 11:26N 37°57' E 023°36'0 0.0
2014-Apr-11 10:32N 37°57' E 023°36'0 0.0
2014-Apr-11 09:32N 37°57' E 023°36'0 0.0
2014-Apr-11 08:31N 37°57' E 023°36'0 0.0
2014-Apr-11 07:31N 37°57' E 023°36'0 0.0
2014-Apr-11 06:21N 37°57' E 023°36'0 0.0
2014-Apr-11 05:33N 37°57' E 023°36'0 0.0
2014-Apr-11 04:32N 37°57' E 023°36'0 0.0
2014-Apr-11 03:32N 37°57' E 023°36'0 0.0
2014-Apr-11 02:31N 37°57' E 023°36'0 0.0
2014-Apr-11 01:31N 37°57' E 023°36'0 0.0
2014-Apr-11 00:31N 37°57' E 023°36'0 0.0
2014-Apr-10 23:33N 37°57' E 023°36'0 0.0
2014-Apr-10 22:33N 37°57' E 023°36'0 0.0
2014-Apr-10 21:32N 37°57' E 023°36'0 0.0
2014-Apr-10 20:32N 37°57' E 023°36'1 1.1
2014-Apr-10 19:33N 37°56' E 023°36'4 4.3
2014-Apr-10 18:33N 37°52' E 023°35'1 0.9
2014-Apr-10 17:33N 37°53' E 023°35'0 0.1
2014-Apr-10 16:33N 37°53' E 023°35'9 9.3
2014-Apr-10 15:34N 37°46' E 023°42'1914.9
2014-Apr-10 14:18N 37°35' E 024°02'2915.8
2014-Apr-10 12:27N 37°52' E 024°31'14115.9
2014-Apr-10 03:32N 39°58' E 025°54'4513.2
2014-Apr-10 00:07N 40°24' E 026°42'5 9.6
2014-Apr-09 23:33N 40°27' E 026°48'  
2014-Apr-06 11:33N 44°17' E 034°03'1717.0
2014-Apr-06 10:33N 44°16' E 034°26'1414.1
2014-Apr-06 09:33N 44°18' E 034°46'1211.8
2014-Apr-06 08:33N 44°15' E 035°02'1716.9
2014-Apr-06 07:32N 44°15' E 035°26'  

Dump ship's entire track history

sailing weather and tide predictions

MSC Fuji — A8VH6 — position and weather